sensor_id;sensor_type;location;lat;lon;timestamp;pressure;altitude;pressure_sealevel;temperature;humidity
43745;BME280;29359;53.048;8.732;2022-07-29T00:00:18;102036.19;;;15.43;58.75
43745;BME280;29359;53.048;8.732;2022-07-29T00:02:19;102036.16;;;15.44;58.34
43745;BME280;29359;53.048;8.732;2022-07-29T00:04:21;102023.72;;;15.45;58.40
43745;BME280;29359;53.048;8.732;2022-07-29T00:06:23;102030.91;;;15.41;58.90
43745;BME280;29359;53.048;8.732;2022-07-29T00:08:24;102018.53;;;15.40;58.51
43745;BME280;29359;53.048;8.732;2022-07-29T00:10:26;102015.00;;;15.39;58.39
43745;BME280;29359;53.048;8.732;2022-07-29T00:12:27;102015.13;;;15.35;58.75
43745;BME280;29359;53.048;8.732;2022-07-29T00:14:30;102015.97;;;15.37;58.53
43745;BME280;29359;53.048;8.732;2022-07-29T00:16:31;102009.72;;;15.38;58.29
43745;BME280;29359;53.048;8.732;2022-07-29T00:18:33;102006.22;;;15.36;58.26
43745;BME280;29359;53.048;8.732;2022-07-29T00:20:34;102006.31;;;15.33;58.45
43745;BME280;29359;53.048;8.732;2022-07-29T00:22:39;102001.97;;;15.30;58.45
43745;BME280;29359;53.048;8.732;2022-07-29T00:24:41;102003.78;;;15.28;58.25
43745;BME280;29359;53.048;8.732;2022-07-29T00:26:42;102000.31;;;15.26;58.54
43745;BME280;29359;53.048;8.732;2022-07-29T00:28:44;102004.84;;;15.23;59.08
43745;BME280;29359;53.048;8.732;2022-07-29T00:30:45;102002.19;;;15.23;58.46
43745;BME280;29359;53.048;8.732;2022-07-29T00:32:47;102003.16;;;15.20;58.52
43745;BME280;29359;53.048;8.732;2022-07-29T00:34:48;101996.91;;;15.21;58.46
43745;BME280;29359;53.048;8.732;2022-07-29T00:37:08;101998.69;;;15.21;58.44
43745;BME280;29359;53.048;8.732;2022-07-29T00:39:09;102000.53;;;15.19;58.49
43745;BME280;29359;53.048;8.732;2022-07-29T00:41:11;101988.09;;;15.19;58.56
43745;BME280;29359;53.048;8.732;2022-07-29T00:43:13;101995.22;;;15.19;58.84
43745;BME280;29359;53.048;8.732;2022-07-29T00:45:16;101983.69;;;15.18;58.44
43745;BME280;29359;53.048;8.732;2022-07-29T00:47:18;101989.91;;;15.17;58.42
43745;BME280;29359;53.048;8.732;2022-07-29T00:49:20;101989.94;;;15.16;58.17
43745;BME280;29359;53.048;8.732;2022-07-29T00:51:22;101984.69;;;15.14;58.65
43745;BME280;29359;53.048;8.732;2022-07-29T00:53:24;101979.34;;;15.14;58.53
43745;BME280;29359;53.048;8.732;2022-07-29T00:55:27;101983.84;;;15.12;58.49
43745;BME280;29359;53.048;8.732;2022-07-29T00:57:30;101975.88;;;15.12;58.32
43745;BME280;29359;53.048;8.732;2022-07-29T00:59:31;101976.75;;;15.13;58.16
43745;BME280;29359;53.048;8.732;2022-07-29T01:01:35;101979.34;;;15.14;58.07
43745;BME280;29359;53.048;8.732;2022-07-29T01:03:37;101971.41;;;15.13;57.93
43745;BME280;29359;53.048;8.732;2022-07-29T01:05:40;101970.56;;;15.12;58.23
43745;BME280;29359;53.048;8.732;2022-07-29T01:07:53;101967.06;;;15.10;58.14
43745;BME280;29359;53.048;8.732;2022-07-29T01:09:56;101960.88;;;15.09;58.36
43745;BME280;29359;53.048;8.732;2022-07-29T01:11:58;101960.00;;;15.09;58.08
43745;BME280;29359;53.048;8.732;2022-07-29T01:14:01;101959.97;;;15.11;57.98
43745;BME280;29359;53.048;8.732;2022-07-29T01:16:09;101956.44;;;15.10;58.27
43745;BME280;29359;53.048;8.732;2022-07-29T01:18:17;101958.34;;;15.05;58.22
43745;BME280;29359;53.048;8.732;2022-07-29T01:22:36;101951.28;;;15.04;58.40
43745;BME280;29359;53.048;8.732;2022-07-29T01:25:01;101946.88;;;15.03;58.15
43745;BME280;29359;53.048;8.732;2022-07-29T01:29:44;101943.34;;;15.02;57.84
43745;BME280;29359;53.048;8.732;2022-07-29T01:32:01;101939.78;;;15.03;58.08
43745;BME280;29359;53.048;8.732;2022-07-29T01:34:06;101929.19;;;15.02;58.22
43745;BME280;29359;53.048;8.732;2022-07-29T01:36:16;101927.50;;;14.99;58.31
43745;BME280;29359;53.048;8.732;2022-07-29T01:38:21;101925.69;;;15.00;57.87
43745;BME280;29359;53.048;8.732;2022-07-29T01:42:45;101926.66;;;14.97;58.24
43745;BME280;29359;53.048;8.732;2022-07-29T01:45:08;101925.75;;;14.98;57.95
43745;BME280;29359;53.048;8.732;2022-07-29T01:47:13;101926.72;;;14.96;57.99
43745;BME280;29359;53.048;8.732;2022-07-29T01:49:21;101919.59;;;14.96;58.32
43745;BME280;29359;53.048;8.732;2022-07-29T01:51:29;101919.56;;;14.98;58.20
43745;BME280;29359;53.048;8.732;2022-07-29T01:53:37;101919.66;;;14.95;57.09
43745;BME280;29359;53.048;8.732;2022-07-29T01:55:43;101915.16;;;14.97;57.91
43745;BME280;29359;53.048;8.732;2022-07-29T01:57:47;101908.13;;;14.94;58.10
43745;BME280;29359;53.048;8.732;2022-07-29T01:59:49;101905.56;;;14.91;58.09
43745;BME280;29359;53.048;8.732;2022-07-29T02:01:53;101898.47;;;14.92;58.11
43745;BME280;29359;53.048;8.732;2022-07-29T02:03:56;101903.00;;;14.88;58.44
43745;BME280;29359;53.048;8.732;2022-07-29T02:05:59;101903.88;;;14.89;58.13
43745;BME280;29359;53.048;8.732;2022-07-29T02:08:04;101907.50;;;14.86;58.49
43745;BME280;29359;53.048;8.732;2022-07-29T02:10:07;101904.78;;;14.88;58.40
43745;BME280;29359;53.048;8.732;2022-07-29T02:12:10;101901.25;;;14.87;58.10
43745;BME280;29359;53.048;8.732;2022-07-29T02:14:14;101902.13;;;14.88;57.77
43745;BME280;29359;53.048;8.732;2022-07-29T02:16:18;101895.97;;;14.86;58.18
43745;BME280;29359;53.048;8.732;2022-07-29T02:18:23;101898.59;;;14.87;58.26
43745;BME280;29359;53.048;8.732;2022-07-29T02:20:27;101895.06;;;14.87;58.14
43745;BME280;29359;53.048;8.732;2022-07-29T02:22:31;101893.28;;;14.87;57.70
43745;BME280;29359;53.048;8.732;2022-07-29T02:24:36;101899.69;;;14.80;59.63
43745;BME280;29359;53.048;8.732;2022-07-29T02:26:41;101893.50;;;14.80;58.58
43745;BME280;29359;53.048;8.732;2022-07-29T02:28:44;101890.91;;;14.78;58.51
43745;BME280;29359;53.048;8.732;2022-07-29T02:30:48;101890.84;;;14.80;58.36
43745;BME280;29359;53.048;8.732;2022-07-29T02:32:53;101890.81;;;14.81;57.96
43745;BME280;29359;53.048;8.732;2022-07-29T02:34:55;101888.97;;;14.83;57.66
43745;BME280;29359;53.048;8.732;2022-07-29T02:36:58;101888.09;;;14.83;57.95
43745;BME280;29359;53.048;8.732;2022-07-29T02:39:01;101890.75;;;14.83;58.28
43745;BME280;29359;53.048;8.732;2022-07-29T02:41:07;101882.81;;;14.81;58.03
43745;BME280;29359;53.048;8.732;2022-07-29T02:43:10;101887.31;;;14.79;58.45
43745;BME280;29359;53.048;8.732;2022-07-29T02:45:12;101893.50;;;14.80;58.57
43745;BME280;29359;53.048;8.732;2022-07-29T02:47:19;101893.50;;;14.80;58.36
43745;BME280;29359;53.048;8.732;2022-07-29T02:49:38;101895.25;;;14.81;58.15
43745;BME280;29359;53.048;8.732;2022-07-29T02:51:45;101902.31;;;14.82;57.99
43745;BME280;29359;53.048;8.732;2022-07-29T02:53:49;101897.91;;;14.81;57.83
43745;BME280;29359;53.048;8.732;2022-07-29T02:56:00;101896.13;;;14.81;58.06
43745;BME280;29359;53.048;8.732;2022-07-29T02:58:29;101891.63;;;14.83;58.02
43745;BME280;29359;53.048;8.732;2022-07-29T03:00:32;101881.03;;;14.82;57.66
43745;BME280;29359;53.048;8.732;2022-07-29T03:02:40;101886.31;;;14.83;57.61
43745;BME280;29359;53.048;8.732;2022-07-29T03:04:43;101889.03;;;14.82;57.99
43745;BME280;29359;53.048;8.732;2022-07-29T03:06:45;101890.91;;;14.78;58.04
43745;BME280;29359;53.048;8.732;2022-07-29T03:08:49;101890.84;;;14.80;58.24
43745;BME280;29359;53.048;8.732;2022-07-29T03:10:51;101888.19;;;14.80;58.00
43745;BME280;29359;53.048;8.732;2022-07-29T03:12:55;101884.63;;;14.81;58.22
43745;BME280;29359;53.048;8.732;2022-07-29T03:14:57;101882.88;;;14.80;58.46
43745;BME280;29359;53.048;8.732;2022-07-29T03:17:00;101880.22;;;14.80;58.77
43745;BME280;29359;53.048;8.732;2022-07-29T03:19:03;101881.13;;;14.79;58.52
43745;BME280;29359;53.048;8.732;2022-07-29T03:21:05;101882.00;;;14.79;58.79
43745;BME280;29359;53.048;8.732;2022-07-29T03:23:10;101885.53;;;14.80;59.00
43745;BME280;29359;53.048;8.732;2022-07-29T03:25:13;101889.06;;;14.80;58.80
43745;BME280;29359;53.048;8.732;2022-07-29T03:27:15;101881.88;;;14.84;59.19
43745;BME280;29359;53.048;8.732;2022-07-29T03:29:17;101886.31;;;14.83;58.77
43745;BME280;29359;53.048;8.732;2022-07-29T03:31:20;101885.44;;;14.83;58.88
43745;BME280;29359;53.048;8.732;2022-07-29T03:33:21;101882.78;;;14.83;59.24
43745;BME280;29359;53.048;8.732;2022-07-29T03:35:23;101883.75;;;14.80;59.64
43745;BME280;29359;53.048;8.732;2022-07-29T03:37:26;101884.63;;;14.81;59.31
43745;BME280;29359;53.048;8.732;2022-07-29T03:39:30;101888.06;;;14.84;59.31
43745;BME280;29359;53.048;8.732;2022-07-29T03:41:33;101886.19;;;14.88;59.22
43745;BME280;29359;53.048;8.732;2022-07-29T03:43:37;101885.34;;;14.86;59.75
43745;BME280;29359;53.048;8.732;2022-07-29T03:45:51;101887.13;;;14.85;59.45
43745;BME280;29359;53.048;8.732;2022-07-29T03:47:57;101888.94;;;14.85;59.62
43745;BME280;29359;53.048;8.732;2022-07-29T03:50:06;101882.69;;;14.86;59.89
43745;BME280;29359;53.048;8.732;2022-07-29T03:52:11;101879.22;;;14.84;59.80
43745;BME280;29359;53.048;8.732;2022-07-29T03:54:12;101883.56;;;14.86;59.81
43745;BME280;29359;53.048;8.732;2022-07-29T03:56:16;101873.75;;;14.88;60.03
43745;BME280;29359;53.048;8.732;2022-07-29T03:58:23;101882.69;;;14.86;60.11
43745;BME280;29359;53.048;8.732;2022-07-29T04:00:27;101878.94;;;14.93;59.69
43745;BME280;29359;53.048;8.732;2022-07-29T04:02:30;101879.91;;;14.90;60.28
43745;BME280;29359;53.048;8.732;2022-07-29T04:04:34;101882.59;;;14.89;60.23
43745;BME280;29359;53.048;8.732;2022-07-29T04:06:43;101883.38;;;14.92;60.27
43745;BME280;29359;53.048;8.732;2022-07-29T04:08:46;101876.28;;;14.93;60.35
43745;BME280;29359;53.048;8.732;2022-07-29T04:10:47;101871.78;;;14.95;60.31
43745;BME280;29359;53.048;8.732;2022-07-29T04:12:49;101870.97;;;14.93;60.19
43745;BME280;29359;53.048;8.732;2022-07-29T04:14:51;101866.50;;;14.93;60.48
43745;BME280;29359;53.048;8.732;2022-07-29T04:16:52;101878.94;;;14.93;60.68
43745;BME280;29359;53.048;8.732;2022-07-29T04:18:54;101876.19;;;14.96;60.45
43745;BME280;29359;53.048;8.732;2022-07-29T04:20:55;101873.44;;;14.99;60.36
43745;BME280;29359;53.048;8.732;2022-07-29T04:22:57;101879.63;;;14.99;60.56
43745;BME280;29359;53.048;8.732;2022-07-29T04:24:58;101877.88;;;14.98;60.35
43745;BME280;29359;53.048;8.732;2022-07-29T04:27:04;101879.63;;;14.99;60.69
43745;BME280;29359;53.048;8.732;2022-07-29T04:29:06;101887.50;;;15.02;60.60
43745;BME280;29359;53.048;8.732;2022-07-29T04:31:07;101880.34;;;15.04;60.23
43745;BME280;29359;53.048;8.732;2022-07-29T04:33:09;101882.00;;;15.08;60.30
43745;BME280;29359;53.048;8.732;2022-07-29T04:35:10;101882.88;;;15.09;60.28
43745;BME280;29359;53.048;8.732;2022-07-29T04:37:12;101889.06;;;15.09;60.34
43745;BME280;29359;53.048;8.732;2022-07-29T04:39:14;101880.13;;;15.12;60.03
43745;BME280;29359;53.048;8.732;2022-07-29T04:41:22;101888.91;;;15.14;59.94
43745;BME280;29359;53.048;8.732;2022-07-29T04:43:37;101880.03;;;15.15;59.82
43745;BME280;29359;53.048;8.732;2022-07-29T04:45:39;101887.09;;;15.16;59.83
43745;BME280;29359;53.048;8.732;2022-07-29T04:47:40;101881.75;;;15.16;59.76
43745;BME280;29359;53.048;8.732;2022-07-29T04:49:42;101886.16;;;15.19;59.65
43745;BME280;29359;53.048;8.732;2022-07-29T04:51:43;101885.22;;;15.20;59.61
43745;BME280;29359;53.048;8.732;2022-07-29T04:53:45;101893.13;;;15.23;59.48
43745;BME280;29359;53.048;8.732;2022-07-29T04:55:46;101889.50;;;15.25;59.08
43745;BME280;29359;53.048;8.732;2022-07-29T04:57:48;101880.63;;;15.25;59.27
43745;BME280;29359;53.048;8.732;2022-07-29T04:59:50;101882.38;;;15.26;59.06
43745;BME280;29359;53.048;8.732;2022-07-29T05:01:51;101877.06;;;15.26;59.13
43745;BME280;29359;53.048;8.732;2022-07-29T05:03:53;101888.53;;;15.28;59.18
43745;BME280;29359;53.048;8.732;2022-07-29T05:06:00;101880.50;;;15.29;58.86
43745;BME280;29359;53.048;8.732;2022-07-29T05:08:02;101879.56;;;15.30;58.92
43745;BME280;29359;53.048;8.732;2022-07-29T05:10:04;101883.00;;;15.34;58.91
43745;BME280;29359;53.048;8.732;2022-07-29T05:12:06;101879.44;;;15.35;58.93
43745;BME280;29359;53.048;8.732;2022-07-29T05:14:08;101891.81;;;15.36;58.95
43745;BME280;29359;53.048;8.732;2022-07-29T05:16:09;101890.03;;;15.36;58.92
43745;BME280;29359;53.048;8.732;2022-07-29T05:18:11;101896.22;;;15.37;59.31
43745;BME280;29359;53.048;8.732;2022-07-29T05:20:13;101894.38;;;15.39;59.17
43745;BME280;29359;53.048;8.732;2022-07-29T05:22:14;101891.63;;;15.42;58.86
43745;BME280;29359;53.048;8.732;2022-07-29T05:24:17;101894.19;;;15.45;59.25
43745;BME280;29359;53.048;8.732;2022-07-29T05:26:19;101885.06;;;15.52;58.44
43745;BME280;29359;53.048;8.732;2022-07-29T05:28:21;101883.13;;;15.57;58.48
43745;BME280;29359;53.048;8.732;2022-07-29T05:30:23;101885.72;;;15.60;58.15
43745;BME280;29359;53.048;8.732;2022-07-29T05:32:24;101885.72;;;15.62;58.17
43745;BME280;29359;53.048;8.732;2022-07-29T05:34:26;101883.00;;;15.63;58.29
43745;BME280;29359;53.048;8.732;2022-07-29T05:36:28;101877.63;;;15.65;58.17
43745;BME280;29359;53.048;8.732;2022-07-29T05:38:29;101880.28;;;15.65;58.67
43745;BME280;29359;53.048;8.732;2022-07-29T05:40:31;101876.66;;;15.67;58.29
43745;BME280;29359;53.048;8.732;2022-07-29T05:42:33;101879.22;;;15.70;58.20
43745;BME280;29359;53.048;8.732;2022-07-29T05:44:38;101878.28;;;15.72;59.27
43745;BME280;29359;53.048;8.732;2022-07-29T05:46:40;101882.69;;;15.73;58.25
43745;BME280;29359;53.048;8.732;2022-07-29T05:48:42;101883.53;;;15.75;58.21
43745;BME280;29359;53.048;8.732;2022-07-29T05:50:43;101883.47;;;15.76;58.25
43745;BME280;29359;53.048;8.732;2022-07-29T05:52:45;101881.72;;;15.75;58.47
43745;BME280;29359;53.048;8.732;2022-07-29T05:54:47;101883.41;;;15.78;58.29
43745;BME280;29359;53.048;8.732;2022-07-29T05:56:48;101883.31;;;15.81;58.30
43745;BME280;29359;53.048;8.732;2022-07-29T05:58:50;101877.06;;;15.82;58.39
43745;BME280;29359;53.048;8.732;2022-07-29T06:00:52;101876.03;;;15.86;58.29
43745;BME280;29359;53.048;8.732;2022-07-29T06:02:54;101883.97;;;15.87;58.26
43745;BME280;29359;53.048;8.732;2022-07-29T06:04:55;101886.53;;;15.90;57.99
43745;BME280;29359;53.048;8.732;2022-07-29T06:06:57;101879.38;;;15.92;58.04
43745;BME280;29359;53.048;8.732;2022-07-29T06:08:59;101873.97;;;15.94;58.11
43745;BME280;29359;53.048;8.732;2022-07-29T06:11:12;101869.47;;;15.96;58.14
43745;BME280;29359;53.048;8.732;2022-07-29T06:13:14;101871.16;;;15.98;58.53
43745;BME280;29359;53.048;8.732;2022-07-29T06:15:17;101866.66;;;16.00;58.01
43745;BME280;29359;53.048;8.732;2022-07-29T06:17:19;101869.19;;;16.05;58.02
43745;BME280;29359;53.048;8.732;2022-07-29T06:19:20;101863.75;;;16.08;58.12
43745;BME280;29359;53.048;8.732;2022-07-29T06:21:22;101868.97;;;16.11;57.78
43745;BME280;29359;53.048;8.732;2022-07-29T06:23:24;101862.72;;;16.12;58.35
43745;BME280;29359;53.048;8.732;2022-07-29T06:25:26;101873.22;;;16.17;57.48
43745;BME280;29359;53.048;8.732;2022-07-29T06:27:27;101872.25;;;16.19;57.71
43745;BME280;29359;53.048;8.732;2022-07-29T06:29:29;101868.59;;;16.22;58.07
43745;BME280;29359;53.048;8.732;2022-07-29T06:31:30;101870.22;;;16.26;58.03
43745;BME280;29359;53.048;8.732;2022-07-29T06:33:32;101868.31;;;16.29;57.89
43745;BME280;29359;53.048;8.732;2022-07-29T06:35:34;101868.22;;;16.32;58.25
43745;BME280;29359;53.048;8.732;2022-07-29T06:37:42;101874.31;;;16.36;57.58
43745;BME280;29359;53.048;8.732;2022-07-29T06:39:46;101875.94;;;16.40;57.68
43745;BME280;29359;53.048;8.732;2022-07-29T06:41:48;101880.28;;;16.43;57.78
43745;BME280;29359;53.048;8.732;2022-07-29T06:43:52;101877.56;;;16.44;57.86
43745;BME280;29359;53.048;8.732;2022-07-29T06:46:01;101876.56;;;16.48;57.69
43745;BME280;29359;53.048;8.732;2022-07-29T06:48:03;101871.09;;;16.51;57.67
43745;BME280;29359;53.048;8.732;2022-07-29T06:50:05;101877.09;;;16.58;57.66
43745;BME280;29359;53.048;8.732;2022-07-29T06:52:08;101874.19;;;16.64;57.62
43745;BME280;29359;53.048;8.732;2022-07-29T06:54:09;101883.78;;;16.70;57.40
43745;BME280;29359;53.048;8.732;2022-07-29T06:56:11;101879.97;;;16.77;57.58
43745;BME280;29359;53.048;8.732;2022-07-29T06:58:15;101892.13;;;16.84;56.62
43745;BME280;29359;53.048;8.732;2022-07-29T07:00:19;101892.78;;;16.90;56.85
43745;BME280;29359;53.048;8.732;2022-07-29T07:02:20;101900.59;;;16.97;56.68
43745;BME280;29359;53.048;8.732;2022-07-29T07:04:22;101898.53;;;17.03;56.48
43745;BME280;29359;53.048;8.732;2022-07-29T07:06:23;101886.66;;;17.12;56.11
43745;BME280;29359;53.048;8.732;2022-07-29T07:08:25;101872.13;;;17.19;55.90
43745;BME280;29359;53.048;8.732;2022-07-29T07:10:27;101873.63;;;17.26;55.75
43745;BME280;29359;53.048;8.732;2022-07-29T07:12:28;101880.47;;;17.33;56.55
43745;BME280;29359;53.048;8.732;2022-07-29T07:14:30;101882.84;;;17.41;55.65
43745;BME280;29359;53.048;8.732;2022-07-29T07:16:32;101877.19;;;17.48;55.86
43745;BME280;29359;53.048;8.732;2022-07-29T07:18:34;101872.41;;;17.56;55.72
43745;BME280;29359;53.048;8.732;2022-07-29T07:20:36;101881.91;;;17.64;55.87
43745;BME280;29359;53.048;8.732;2022-07-29T07:22:37;101879.81;;;17.72;56.34
43745;BME280;29359;53.048;8.732;2022-07-29T07:24:39;101868.09;;;17.76;55.74
43745;BME280;29359;53.048;8.732;2022-07-29T07:26:40;101873.25;;;17.80;55.46
43745;BME280;29359;53.048;8.732;2022-07-29T07:28:42;101876.81;;;17.81;55.49
43745;BME280;29359;53.048;8.732;2022-07-29T07:30:45;101872.13;;;17.86;56.47
43745;BME280;29359;53.048;8.732;2022-07-29T07:32:46;101877.34;;;17.89;56.32
43745;BME280;29359;53.048;8.732;2022-07-29T07:34:48;101871.88;;;17.92;56.39
43745;BME280;29359;53.048;8.732;2022-07-29T07:36:50;101861.84;;;17.97;56.56
43745;BME280;29359;53.048;8.732;2022-07-29T07:38:51;101875.69;;;18.07;57.08
43745;BME280;29359;53.048;8.732;2022-07-29T07:40:53;101868.34;;;18.12;57.61
43745;BME280;29359;53.048;8.732;2022-07-29T07:42:54;101872.38;;;18.22;56.20
43745;BME280;29359;53.048;8.732;2022-07-29T07:44:56;101870.22;;;18.30;56.20
43745;BME280;29359;53.048;8.732;2022-07-29T07:47:14;101868.09;;;18.38;56.43
43745;BME280;29359;53.048;8.732;2022-07-29T07:49:18;101869.47;;;18.47;56.35
43745;BME280;29359;53.048;8.732;2022-07-29T07:51:20;101872.81;;;18.52;55.44
43745;BME280;29359;53.048;8.732;2022-07-29T07:53:21;101874.97;;;18.64;56.05
43745;BME280;29359;53.048;8.732;2022-07-29T07:55:23;101871.91;;;18.73;55.88
43745;BME280;29359;53.048;8.732;2022-07-29T07:57:25;101878.72;;;18.80;55.26
43745;BME280;29359;53.048;8.732;2022-07-29T07:59:27;101873.78;;;18.90;55.58
43745;BME280;29359;53.048;8.732;2022-07-29T08:01:28;101874.31;;;18.98;55.72
43745;BME280;29359;53.048;8.732;2022-07-29T08:03:49;101870.28;;;19.08;55.55
43745;BME280;29359;53.048;8.732;2022-07-29T08:05:51;101876.28;;;19.13;55.36
43745;BME280;29359;53.048;8.732;2022-07-29T08:07:53;101879.59;;;19.19;55.58
43745;BME280;29359;53.048;8.732;2022-07-29T08:09:54;101872.06;;;19.27;55.23
43745;BME280;29359;53.048;8.732;2022-07-29T08:11:57;101878.88;;;19.34;55.32
43745;BME280;29359;53.048;8.732;2022-07-29T08:13:59;101885.00;;;19.36;55.21
43745;BME280;29359;53.048;8.732;2022-07-29T08:16:02;101880.69;;;19.33;55.56
43745;BME280;29359;53.048;8.732;2022-07-29T08:18:13;101879.09;;;19.29;55.52
43745;BME280;29359;53.048;8.732;2022-07-29T08:20:14;101884.53;;;19.28;55.81
43745;BME280;29359;53.048;8.732;2022-07-29T08:22:16;101881.84;;;19.28;55.79
43745;BME280;29359;53.048;8.732;2022-07-29T08:24:17;101885.31;;;19.30;55.89
43745;BME280;29359;53.048;8.732;2022-07-29T08:26:37;101881.41;;;19.37;55.77
43745;BME280;29359;53.048;8.732;2022-07-29T08:28:41;101885.50;;;19.44;55.58
43745;BME280;29359;53.048;8.732;2022-07-29T08:30:45;101873.47;;;19.54;55.25
43745;BME280;29359;53.048;8.732;2022-07-29T08:32:48;101881.03;;;19.63;54.86
43745;BME280;29359;53.048;8.732;2022-07-29T08:34:55;101872.56;;;19.72;54.75
43745;BME280;29359;53.048;8.732;2022-07-29T08:36:56;101865.78;;;19.83;54.59
43745;BME280;29359;53.048;8.732;2022-07-29T08:38:58;101873.28;;;19.93;54.50
43745;BME280;29359;53.048;8.732;2022-07-29T08:41:01;101873.69;;;20.03;54.00
43745;BME280;29359;53.048;8.732;2022-07-29T08:43:07;101873.13;;;20.14;53.79
43745;BME280;29359;53.048;8.732;2022-07-29T08:45:09;101875.41;;;20.21;53.42
43745;BME280;29359;53.048;8.732;2022-07-29T08:47:13;101866.91;;;20.30;53.53
43745;BME280;29359;53.048;8.732;2022-07-29T08:49:16;101862.22;;;20.34;53.05
43745;BME280;29359;53.048;8.732;2022-07-29T08:51:20;101863.63;;;20.43;53.03
43745;BME280;29359;53.048;8.732;2022-07-29T08:53:24;101862.44;;;20.48;52.69
43745;BME280;29359;53.048;8.732;2022-07-29T08:55:27;101868.50;;;20.52;52.65
43745;BME280;29359;53.048;8.732;2022-07-29T08:57:29;101873.28;;;20.62;53.02
43745;BME280;29359;53.048;8.732;2022-07-29T08:59:34;101864.03;;;20.68;52.46
43745;BME280;29359;53.048;8.732;2022-07-29T09:01:37;101857.22;;;20.78;52.43
43745;BME280;29359;53.048;8.732;2022-07-29T09:03:45;101864.69;;;20.89;52.56
43745;BME280;29359;53.048;8.732;2022-07-29T09:05:48;101866.19;;;20.94;51.91
43745;BME280;29359;53.048;8.732;2022-07-29T09:07:50;101862.19;;;21.01;52.18
43745;BME280;29359;53.048;8.732;2022-07-29T09:09:52;101868.97;;;21.09;51.91
43745;BME280;29359;53.048;8.732;2022-07-29T09:11:56;101866.09;;;21.12;51.75
43745;BME280;29359;53.048;8.732;2022-07-29T09:13:58;101859.78;;;21.13;52.04
43745;BME280;29359;53.048;8.732;2022-07-29T09:16:00;101867.66;;;21.16;52.10
43745;BME280;29359;53.048;8.732;2022-07-29T09:18:07;101857.38;;;21.24;51.49
43745;BME280;29359;53.048;8.732;2022-07-29T09:20:22;101854.28;;;21.31;51.71
43745;BME280;29359;53.048;8.732;2022-07-29T09:22:30;101854.72;;;21.40;51.37
43745;BME280;29359;53.048;8.732;2022-07-29T09:24:43;101849.75;;;21.48;51.38
43745;BME280;29359;53.048;8.732;2022-07-29T09:26:46;101852.88;;;21.56;50.88
43745;BME280;29359;53.048;8.732;2022-07-29T09:28:47;101854.59;;;21.57;50.77
43745;BME280;29359;53.048;8.732;2022-07-29T09:30:54;101858.84;;;21.61;51.76
43745;BME280;29359;53.048;8.732;2022-07-29T09:33:01;101861.13;;;21.69;50.96
43745;BME280;29359;53.048;8.732;2022-07-29T09:35:22;101863.06;;;21.81;50.79
43745;BME280;29359;53.048;8.732;2022-07-29T09:37:28;101856.38;;;21.88;50.85
43745;BME280;29359;53.048;8.732;2022-07-29T09:39:39;101846.91;;;21.97;50.50
43745;BME280;29359;53.048;8.732;2022-07-29T09:41:52;101854.53;;;22.04;50.66
43745;BME280;29359;53.048;8.732;2022-07-29T09:43:58;101852.44;;;22.09;50.91
43745;BME280;29359;53.048;8.732;2022-07-29T09:46:13;101847.47;;;22.17;51.14
43745;BME280;29359;53.048;8.732;2022-07-29T09:48:23;101842.88;;;22.19;50.47
43745;BME280;29359;53.048;8.732;2022-07-29T09:50:43;101849.59;;;22.27;50.87
43745;BME280;29359;53.048;8.732;2022-07-29T09:52:49;101848.28;;;22.34;50.37
43745;BME280;29359;53.048;8.732;2022-07-29T09:54:51;101834.25;;;22.43;50.15
43745;BME280;29359;53.048;8.732;2022-07-29T09:56:55;101835.41;;;22.53;50.29
43745;BME280;29359;53.048;8.732;2022-07-29T09:59:08;101829.47;;;22.62;49.91
43745;BME280;29359;53.048;8.732;2022-07-29T10:01:09;101834.47;;;22.68;49.95
43745;BME280;29359;53.048;8.732;2022-07-29T10:03:12;101836.75;;;22.74;50.10
43745;BME280;29359;53.048;8.732;2022-07-29T10:07:21;101831.50;;;22.87;50.11
43745;BME280;29359;53.048;8.732;2022-07-29T10:09:23;101828.59;;;22.90;50.21
43745;BME280;29359;53.048;8.732;2022-07-29T10:11:25;101830.13;;;22.94;50.45
43745;BME280;29359;53.048;8.732;2022-07-29T10:13:48;101831.69;;;22.98;50.23
43745;BME280;29359;53.048;8.732;2022-07-29T10:15:49;101826.97;;;23.02;50.12
43745;BME280;29359;53.048;8.732;2022-07-29T10:17:54;101827.72;;;23.04;50.49
43745;BME280;29359;53.048;8.732;2022-07-29T10:19:56;101832.25;;;23.03;50.18
43745;BME280;29359;53.048;8.732;2022-07-29T10:21:59;101831.19;;;23.06;50.12
43745;BME280;29359;53.048;8.732;2022-07-29T10:24:02;101823.00;;;23.07;50.14
43745;BME280;29359;53.048;8.732;2022-07-29T10:26:04;101812.13;;;23.09;50.05
43745;BME280;29359;53.048;8.732;2022-07-29T10:28:05;101818.84;;;23.16;50.65
43745;BME280;29359;53.048;8.732;2022-07-29T10:30:08;101813.72;;;23.26;49.81
43745;BME280;29359;53.048;8.732;2022-07-29T10:37:33;101804.13;;;23.75;48.52
43745;BME280;29359;53.048;8.732;2022-07-29T10:42:02;101807.00;;;24.25;47.91
43745;BME280;29359;53.048;8.732;2022-07-29T10:44:14;101815.78;;;24.54;46.64
43745;BME280;29359;53.048;8.732;2022-07-29T10:46:23;101812.19;;;24.79;46.71
43745;BME280;29359;53.048;8.732;2022-07-29T10:48:26;101815.50;;;24.95;45.81
43745;BME280;29359;53.048;8.732;2022-07-29T10:50:27;101805.31;;;25.24;45.97
43745;BME280;29359;53.048;8.732;2022-07-29T10:53:05;101808.06;;;25.59;46.09
43745;BME280;29359;53.048;8.732;2022-07-29T10:57:37;101801.28;;;26.23;43.94
43745;BME280;29359;53.048;8.732;2022-07-29T11:02:41;101797.78;;;26.56;45.88
43745;BME280;29359;53.048;8.732;2022-07-29T11:09:17;101799.13;;;26.73;46.27
43745;BME280;29359;53.048;8.732;2022-07-29T11:11:39;101789.63;;;26.68;44.81
43745;BME280;29359;53.048;8.732;2022-07-29T11:13:58;101784.47;;;26.76;43.26
43745;BME280;29359;53.048;8.732;2022-07-29T11:16:00;101792.69;;;26.97;46.36